This is the latest recevied weather packets stored in our database for station/object SA3VCC-15. If no packets are shown the sender has not sent any weather packets the latest 10 day(s).
| Time | Temp. | Humidity | Pressure | Rain* | Wind** | Luminosity | Snow |
|---|---|---|---|---|---|---|---|
| 1777831479 | 7.78° C | 68% | 1006 hPa | - | - | - | - |
| 1777830219 | 7.78° C | 66% | 1006.1 hPa | - | - | - | - |
| 1777828959 | 8.33° C | 62% | 1005.9 hPa | - | - | - | - |
| 1777827699 | 8.89° C | 61% | 1005.9 hPa | - | - | - | - |
| 1777826439 | 10.56° C | 55% | 1006.1 hPa | - | - | - | - |
| 1777825179 | 10° C | 58% | 1006.3 hPa | - | - | - | - |
| 1777823919 | 11.67° C | 52% | 1006.5 hPa | - | - | - | - |
| 1777822659 | 10.56° C | 54% | 1006.6 hPa | - | - | - | - |
| 1777821399 | 11.11° C | 54% | 1006.7 hPa | - | - | - | - |
| 1777820139 | 12.22° C | 49% | 1006.9 hPa | - | - | - | - |
| 1777818879 | 11.11° C | 53% | 1007 hPa | - | - | - | - |
| 1777817619 | 12.22° C | 49% | 1007 hPa | - | - | - | - |
| 1777815099 | 13.33° C | 48% | 1007.4 hPa | - | - | - | - |
| 1777813839 | 12.22° C | 48% | 1007.7 hPa | - | - | - | - |
| 1777812579 | 11.67° C | 49% | 1007.9 hPa | - | - | - | - |
| 1777811319 | 10.56° C | 54% | 1008.1 hPa | - | - | - | - |
| 1777810058 | 10° C | 49% | 1008.3 hPa | - | - | - | - |
| 1777808798 | 11.11° C | 49% | 1008.5 hPa | - | - | - | - |
| 1777807538 | 11.11° C | 54% | 1008.4 hPa | - | - | - | - |
| 1777806278 | 10.56° C | 48% | 1008.4 hPa | - | - | - | - |
| 1777805018 | 11.11° C | 47% | 1008.6 hPa | - | - | - | - |
| 1777804082 | -17.78° C | - | - | - | - | - | - |
| 1777804062 | -17.78° C | - | - | - | - | - | - |
| 1777804020 | -17.78° C | - | - | - | - | - | - |
| 1777803805 | -17.78° C | - | - | - | - | - | - |
* Rain since midnight (hover to see other rain measurements)
** Current wind speed in m/s (hover to see current wind gust speed)